This is the latest recevied weather packets stored in our database for station/object EA5GTE-12. If no packets are shown the sender has not sent any weather packets the latest 10 day(s).
| Time | Temp. | Humidity | Pressure | Rain* | Wind** | Luminosity | Snow |
|---|---|---|---|---|---|---|---|
| 1788132210 | 20° C | 57% | 941.1 hPa | - | - | - | - |
| 1788131310 | 20.56° C | 55% | 941.1 hPa | - | - | - | - |
| 1788130410 | 21.11° C | 53% | 941.1 hPa | - | - | - | - |
| 1788129510 | 21.11° C | 52% | 941 hPa | - | - | - | - |
| 1788128610 | 21.67° C | 51% | 940.9 hPa | - | - | - | - |
| 1788127712 | 21.67° C | 50% | 940.8 hPa | - | - | - | - |
| 1788126811 | 22.22° C | 49% | 940.8 hPa | - | - | - | - |
| 1788125911 | 22.22° C | 49% | 940.8 hPa | - | - | - | - |
| 1788125011 | 22.78° C | 47% | 940.7 hPa | - | - | - | - |
| 1788124111 | 23.33° C | 45% | 940.6 hPa | - | - | - | - |
| 1788123211 | 23.33° C | 44% | 940.5 hPa | - | - | - | - |
| 1788122311 | 23.33° C | 42% | 940.5 hPa | - | - | - | - |
| 1788121411 | 23.89° C | 40% | 940.5 hPa | - | - | - | - |
| 1788120511 | 24.44° C | 37% | 940.4 hPa | - | - | - | - |
| 1788119610 | 24.44° C | 36% | 940.2 hPa | - | - | - | - |
| 1788118710 | 25.56° C | 32% | 939.9 hPa | - | - | - | - |
| 1788117810 | 26.11° C | 29% | 939.7 hPa | - | - | - | - |
| 1788116910 | 26.11° C | 29% | 939.4 hPa | - | - | - | - |
| 1788116010 | 26.67° C | 28% | 939.2 hPa | - | - | - | - |
| 1788115110 | 28.33° C | 26% | 939 hPa | - | - | - | - |
| 1788114249 | 30° C | 21% | 938.8 hPa | - | - | - | - |
| 1788114210 | 30° C | 21% | 938.8 hPa | - | - | - | - |
| 1788113310 | 33.33° C | 13% | 938.6 hPa | - | - | - | - |
| 1788112410 | 35° C | 12% | 938.3 hPa | - | - | - | - |
| 1788111510 | 35.56° C | 12% | 938.4 hPa | - | - | - | - |
* Rain since midnight (hover to see other rain measurements)
** Current wind speed in m/s (hover to see current wind gust speed)